createdAt,value
2022-08-30T00:00:38.069Z,3.10
2022-08-30T00:05:47.169Z,2.63
2022-08-30T00:11:04.347Z,2.40
2022-08-30T00:16:12.677Z,3.10
2022-08-30T00:21:28.507Z,2.47
2022-08-30T00:26:34.920Z,2.20
2022-08-30T00:31:40.686Z,2.22
2022-08-30T00:36:48.751Z,2.40
2022-08-30T00:42:04.889Z,3.05
2022-08-30T00:47:12.014Z,3.22
2022-08-30T00:52:27.798Z,2.60
2022-08-30T01:02:58.375Z,3.10
2022-08-30T01:08:08.810Z,3.10
2022-08-30T01:13:14.828Z,3.60
2022-08-30T01:21:43.768Z,2.70
2022-08-30T01:26:49.659Z,2.80
2022-08-30T01:32:05.691Z,2.97
2022-08-30T01:37:32.991Z,2.92
2022-08-30T01:42:58.813Z,3.10
2022-08-30T01:48:06.730Z,3.13
2022-08-30T01:53:20.280Z,3.17
2022-08-30T01:58:29.430Z,3.25
2022-08-30T02:03:45.709Z,2.65
2022-08-30T02:09:03.063Z,2.78
2022-08-30T02:14:12.745Z,2.55
2022-08-30T02:19:23.990Z,2.60
2022-08-30T02:29:50.458Z,2.70
2022-08-30T02:34:56.986Z,2.72
2022-08-30T02:40:00.454Z,2.35
2022-08-30T02:45:10.269Z,2.90
2022-08-30T02:50:17.877Z,2.87
2022-08-30T02:55:26.075Z,3.50
2022-08-30T03:00:29.702Z,2.67
2022-08-30T03:05:35.641Z,2.85
2022-08-30T03:18:13.778Z,3.67
2022-08-30T03:23:21.652Z,3.67
2022-08-30T03:28:29.406Z,3.65
2022-08-30T03:33:34.102Z,3.53
2022-08-30T03:38:41.938Z,4.28
2022-08-30T03:43:59.880Z,4.00
2022-08-30T03:49:08.207Z,3.85
2022-08-30T03:54:26.127Z,4.10
2022-08-30T03:59:31.219Z,3.83
2022-08-30T04:04:37.647Z,3.55
2022-08-30T04:09:47.447Z,3.50
2022-08-30T04:14:57.628Z,3.63
2022-08-30T04:20:04.974Z,3.58
2022-08-30T04:25:15.698Z,3.35
2022-08-30T04:30:42.385Z,3.63
2022-08-30T04:35:49.175Z,3.70
2022-08-30T04:40:55.421Z,3.22
2022-08-30T04:51:28.869Z,3.08
2022-08-30T04:56:37.414Z,3.78
2022-08-30T05:07:12.458Z,3.95
2022-08-30T05:12:18.444Z,3.80
2022-08-30T05:23:02.529Z,3.70
2022-08-30T05:28:15.446Z,3.67
2022-08-30T05:33:20.045Z,3.70
2022-08-30T05:38:24.777Z,3.22
2022-08-30T05:43:39.056Z,3.80
2022-08-30T05:48:50.486Z,3.80
2022-08-30T05:53:59.082Z,3.53
2022-08-30T05:59:14.957Z,3.78
2022-08-30T06:04:24.707Z,3.58
2022-08-30T06:09:42.208Z,3.28
2022-08-30T06:14:53.698Z,3.60
2022-08-30T06:20:02.491Z,4.00
2022-08-30T06:25:09.906Z,3.97
2022-08-30T06:30:27.012Z,4.50
2022-08-30T06:35:46.670Z,3.92
2022-08-30T06:41:11.816Z,3.75
2022-08-30T06:46:26.773Z,4.10
2022-08-30T06:51:38.362Z,3.90
2022-08-30T06:56:58.477Z,3.85
2022-08-30T07:02:13.394Z,3.47
2022-08-30T07:07:23.527Z,3.08
2022-08-30T07:18:40.942Z,3.95
2022-08-30T07:23:53.593Z,3.88
2022-08-30T07:29:07.226Z,3.30
2022-08-30T07:34:20.625Z,3.25
2022-08-30T07:39:39.742Z,3.33
2022-08-30T07:44:48.483Z,3.90
2022-08-30T07:49:51.266Z,2.78
2022-08-30T07:54:59.184Z,3.40
2022-08-30T08:00:07.723Z,3.42
2022-08-30T08:05:24.622Z,2.45
2022-08-30T08:10:38.061Z,3.05
2022-08-30T08:15:52.154Z,2.60
2022-08-30T08:21:03.197Z,2.30
2022-08-30T08:26:08.945Z,3.15
2022-08-30T08:31:25.550Z,2.85
2022-08-30T08:36:43.327Z,2.60
2022-08-30T08:42:23.300Z,2.38
2022-08-30T08:48:04.185Z,2.20
2022-08-30T08:53:46.721Z,2.85
2022-08-30T08:59:00.082Z,2.33
2022-08-30T09:04:17.745Z,2.15
2022-08-30T09:09:35.273Z,2.28
2022-08-30T09:14:56.130Z,3.33
2022-08-30T09:25:41.220Z,2.90
2022-08-30T09:31:28.877Z,2.25
2022-08-30T09:41:47.740Z,2.00
2022-08-30T09:47:02.455Z,2.72
2022-08-30T09:52:28.786Z,2.28
2022-08-30T09:58:12.884Z,2.05
2022-08-30T10:03:48.549Z,1.95
2022-08-30T10:09:26.461Z,2.22
2022-08-30T10:15:27.673Z,2.30
2022-08-30T10:20:52.546Z,2.50
2022-08-30T10:26:45.187Z,2.50
2022-08-30T10:32:09.595Z,2.53
2022-08-30T10:37:33.164Z,2.33
2022-08-30T10:42:59.549Z,2.08
2022-08-30T10:48:37.525Z,2.50
2022-08-30T10:53:53.160Z,2.42
2022-08-30T10:59:01.751Z,2.35
2022-08-30T11:04:25.960Z,2.28
2022-08-30T11:10:18.492Z,2.40
2022-08-30T11:15:37.634Z,2.42
2022-08-30T11:21:31.188Z,2.90
2022-08-30T11:26:50.145Z,2.40
2022-08-30T11:31:54.762Z,2.53
2022-08-30T11:37:10.296Z,2.10
2022-08-30T11:48:10.223Z,2.65
2022-08-30T11:53:45.333Z,2.17
2022-08-30T11:59:09.892Z,2.78
2022-08-30T12:04:31.763Z,2.33
2022-08-30T12:10:01.505Z,2.67
2022-08-30T12:15:20.647Z,2.92
2022-08-30T12:20:47.650Z,3.00
2022-08-30T12:26:17.201Z,2.45
2022-08-30T12:31:37.346Z,2.53
2022-08-30T12:36:57.120Z,2.60
2022-08-30T12:42:30.122Z,2.70
2022-08-30T12:47:57.238Z,2.53
2022-08-30T12:53:13.751Z,2.70
2022-08-30T12:58:44.647Z,2.35
2022-08-30T13:04:22.387Z,2.67
2022-08-30T13:15:13.086Z,2.63
2022-08-30T13:20:24.610Z,3.22
2022-08-30T13:25:42.436Z,2.70
2022-08-30T13:30:56.961Z,2.95
2022-08-30T13:36:08.236Z,2.10
2022-08-30T13:41:30.116Z,2.60
2022-08-30T13:46:52.319Z,2.03
2022-08-30T13:52:20.413Z,2.50
2022-08-30T14:03:03.055Z,2.40
2022-08-30T14:08:44.246Z,2.17
2022-08-30T14:14:14.669Z,2.17
2022-08-30T14:19:09.068Z,2.60
2022-08-30T14:24:21.597Z,2.67
2022-08-30T14:29:33.353Z,2.10
2022-08-30T14:34:39.451Z,2.42
2022-08-30T14:39:50.763Z,2.45
2022-08-30T14:44:56.602Z,2.30
2022-08-30T14:50:03.199Z,2.25
2022-08-30T14:55:11.957Z,1.92
2022-08-30T15:00:18.111Z,2.63
2022-08-30T15:05:26.172Z,2.10
2022-08-30T15:10:40.577Z,2.10
2022-08-30T15:15:46.942Z,2.25
2022-08-30T15:21:01.073Z,2.70
2022-08-30T15:26:09.461Z,2.53
2022-08-30T15:31:27.256Z,2.00
2022-08-30T15:36:31.670Z,2.03
2022-08-30T15:41:39.272Z,2.17
2022-08-30T15:46:51.941Z,2.35
2022-08-30T15:52:01.116Z,2.30
2022-08-30T15:57:08.059Z,2.10
2022-08-30T16:02:11.507Z,2.05
2022-08-30T16:12:36.880Z,2.78
2022-08-30T16:17:45.477Z,2.75
2022-08-30T16:22:56.102Z,2.10
2022-08-30T16:28:05.353Z,2.40
2022-08-30T16:33:10.346Z,2.30
2022-08-30T16:38:17.030Z,1.88
2022-08-30T16:43:26.474Z,2.67
2022-08-30T16:48:30.950Z,2.58
2022-08-30T16:53:41.301Z,2.15
2022-08-30T16:58:53.819Z,2.40
2022-08-30T17:04:03.021Z,2.20
2022-08-30T17:09:19.306Z,1.90
2022-08-30T17:14:29.321Z,1.92
2022-08-30T17:19:41.181Z,2.45
2022-08-30T17:24:51.106Z,2.30
2022-08-30T17:29:58.227Z,2.33
2022-08-30T17:35:13.463Z,2.03
2022-08-30T17:40:32.373Z,2.13
2022-08-30T17:45:41.696Z,2.10
2022-08-30T17:50:46.950Z,2.10
2022-08-30T17:55:53.404Z,2.22
2022-08-30T18:01:21.684Z,2.05
2022-08-30T18:06:33.181Z,2.20
2022-08-30T18:11:48.304Z,1.90
2022-08-30T18:17:04.526Z,2.13
2022-08-30T18:22:13.525Z,2.33
2022-08-30T18:27:21.158Z,2.50
2022-08-30T18:32:35.274Z,2.13
2022-08-30T18:37:39.141Z,1.98
2022-08-30T18:42:45.992Z,2.17
2022-08-30T18:47:53.327Z,2.45
2022-08-30T18:58:18.796Z,2.80
2022-08-30T19:03:24.423Z,2.40
2022-08-30T19:08:32.282Z,2.38
2022-08-30T19:13:45.987Z,2.40
2022-08-30T19:18:49.988Z,2.90
2022-08-30T19:23:59.891Z,2.67
2022-08-30T19:29:07.935Z,2.67
2022-08-30T19:34:12.387Z,6.30
2022-08-30T19:39:24.810Z,4.03
2022-08-30T19:44:29.190Z,3.10
2022-08-30T19:55:03.321Z,2.92
2022-08-30T20:00:12.212Z,3.92
2022-08-30T20:05:24.039Z,2.55
2022-08-30T20:10:34.431Z,3.60
2022-08-30T20:15:38.954Z,3.13
2022-08-30T20:26:14.564Z,3.28
2022-08-30T20:31:30.410Z,7.97
2022-08-30T20:36:38.853Z,5.28
2022-08-30T20:41:45.457Z,4.78
2022-08-30T20:46:51.034Z,3.38
2022-08-30T20:52:02.105Z,3.00
2022-08-30T21:02:16.585Z,2.60
2022-08-30T21:07:19.554Z,2.88
2022-08-30T21:12:29.997Z,2.85
2022-08-30T21:17:36.616Z,2.70
2022-08-30T21:22:48.668Z,4.53
2022-08-30T21:27:59.279Z,4.80
2022-08-30T21:33:07.781Z,6.05
2022-08-30T21:38:12.877Z,6.22
2022-08-30T21:43:22.162Z,4.68
2022-08-30T21:48:29.588Z,3.65
2022-08-30T21:53:35.683Z,3.50
2022-08-30T21:58:40.679Z,3.58
2022-08-30T22:03:48.983Z,3.53
2022-08-30T22:08:53.687Z,2.92
2022-08-30T22:19:22.428Z,3.60
2022-08-30T22:24:32.435Z,3.15
2022-08-30T22:29:37.567Z,3.75
2022-08-30T22:34:40.766Z,3.65
2022-08-30T22:39:46.208Z,3.22
2022-08-30T22:44:51.804Z,2.33
2022-08-30T22:50:08.764Z,3.05
2022-08-30T22:55:12.694Z,3.40
2022-08-30T23:00:21.125Z,4.03
2022-08-30T23:05:26.488Z,3.45
2022-08-30T23:10:37.650Z,4.05
2022-08-30T23:15:42.889Z,7.78
2022-08-30T23:20:51.721Z,5.00
2022-08-30T23:26:21.423Z,3.40
2022-08-30T23:31:46.665Z,3.10
2022-08-30T23:37:16.822Z,2.33
2022-08-30T23:42:46.233Z,2.67
2022-08-30T23:48:10.429Z,3.30
2022-08-30T23:53:37.699Z,8.05
2022-08-30T23:59:14.910Z,5.90
